sensor_id;sensor_type;location;lat;lon;timestamp;P1;durP1;ratioP1;P2;durP2;ratioP2
68509;SDS011;55512;50.102;19.958;2023-12-29T00:02:18;33.40;;;17.00;;
68509;SDS011;55512;50.102;19.958;2023-12-29T00:04:44;34.30;;;17.90;;
68509;SDS011;55512;50.102;19.958;2023-12-29T00:07:09;36.40;;;17.90;;
68509;SDS011;55512;50.102;19.958;2023-12-29T00:09:34;34.30;;;19.10;;
68509;SDS011;55512;50.102;19.958;2023-12-29T00:12:06;34.30;;;19.70;;
68509;SDS011;55512;50.102;19.958;2023-12-29T00:14:32;34.00;;;17.30;;
68509;SDS011;55512;50.102;19.958;2023-12-29T00:16:58;30.80;;;18.50;;
68509;SDS011;55512;50.102;19.958;2023-12-29T00:19:23;35.30;;;19.00;;
68509;SDS011;55512;50.102;19.958;2023-12-29T00:21:49;34.80;;;19.60;;
68509;SDS011;55512;50.102;19.958;2023-12-29T00:24:14;35.30;;;19.40;;
68509;SDS011;55512;50.102;19.958;2023-12-29T00:26:39;36.20;;;19.00;;
68509;SDS011;55512;50.102;19.958;2023-12-29T00:29:04;32.80;;;18.70;;
68509;SDS011;55512;50.102;19.958;2023-12-29T00:31:31;36.40;;;18.80;;
68509;SDS011;55512;50.102;19.958;2023-12-29T00:33:57;35.30;;;18.50;;
68509;SDS011;55512;50.102;19.958;2023-12-29T00:36:23;31.80;;;17.90;;
68509;SDS011;55512;50.102;19.958;2023-12-29T00:38:49;33.00;;;17.40;;
68509;SDS011;55512;50.102;19.958;2023-12-29T00:41:15;32.50;;;18.20;;
68509;SDS011;55512;50.102;19.958;2023-12-29T00:43:40;33.20;;;17.50;;
68509;SDS011;55512;50.102;19.958;2023-12-29T00:46:05;32.40;;;19.20;;
68509;SDS011;55512;50.102;19.958;2023-12-29T00:48:32;32.60;;;17.30;;
68509;SDS011;55512;50.102;19.958;2023-12-29T00:50:57;36.80;;;19.60;;
68509;SDS011;55512;50.102;19.958;2023-12-29T00:53:23;33.40;;;18.70;;
68509;SDS011;55512;50.102;19.958;2023-12-29T00:55:49;29.00;;;16.60;;
68509;SDS011;55512;50.102;19.958;2023-12-29T00:58:14;29.30;;;16.90;;
68509;SDS011;55512;50.102;19.958;2023-12-29T01:00:40;31.60;;;17.70;;
68509;SDS011;55512;50.102;19.958;2023-12-29T01:03:05;30.40;;;17.30;;
68509;SDS011;55512;50.102;19.958;2023-12-29T01:05:31;34.00;;;18.20;;
68509;SDS011;55512;50.102;19.958;2023-12-29T01:07:56;31.90;;;17.50;;
68509;SDS011;55512;50.102;19.958;2023-12-29T01:10:22;30.70;;;17.40;;
68509;SDS011;55512;50.102;19.958;2023-12-29T01:12:48;29.40;;;17.20;;
68509;SDS011;55512;50.102;19.958;2023-12-29T01:15:13;29.70;;;16.80;;
68509;SDS011;55512;50.102;19.958;2023-12-29T01:17:39;35.00;;;20.10;;
68509;SDS011;55512;50.102;19.958;2023-12-29T01:20:05;28.60;;;16.00;;
68509;SDS011;55512;50.102;19.958;2023-12-29T01:22:30;30.20;;;16.40;;
68509;SDS011;55512;50.102;19.958;2023-12-29T01:24:58;31.80;;;17.00;;
68509;SDS011;55512;50.102;19.958;2023-12-29T01:27:25;27.70;;;16.10;;
68509;SDS011;55512;50.102;19.958;2023-12-29T01:29:50;30.80;;;16.20;;
68509;SDS011;55512;50.102;19.958;2023-12-29T01:32:17;31.20;;;17.30;;
68509;SDS011;55512;50.102;19.958;2023-12-29T01:34:43;31.30;;;16.60;;
68509;SDS011;55512;50.102;19.958;2023-12-29T01:37:09;30.90;;;16.40;;
68509;SDS011;55512;50.102;19.958;2023-12-29T01:39:34;29.10;;;16.60;;
68509;SDS011;55512;50.102;19.958;2023-12-29T01:42:00;30.30;;;16.10;;
68509;SDS011;55512;50.102;19.958;2023-12-29T01:44:25;30.70;;;16.00;;
68509;SDS011;55512;50.102;19.958;2023-12-29T01:46:55;32.40;;;17.60;;
68509;SDS011;55512;50.102;19.958;2023-12-29T01:49:24;34.20;;;17.90;;
68509;SDS011;55512;50.102;19.958;2023-12-29T01:51:54;32.50;;;18.30;;
68509;SDS011;55512;50.102;19.958;2023-12-29T01:54:23;27.00;;;14.90;;
68509;SDS011;55512;50.102;19.958;2023-12-29T01:56:51;27.10;;;16.20;;
68509;SDS011;55512;50.102;19.958;2023-12-29T01:59:20;31.20;;;14.30;;
68509;SDS011;55512;50.102;19.958;2023-12-29T02:01:46;27.60;;;13.80;;
68509;SDS011;55512;50.102;19.958;2023-12-29T02:04:12;26.10;;;13.70;;
68509;SDS011;55512;50.102;19.958;2023-12-29T02:06:39;27.40;;;14.20;;
68509;SDS011;55512;50.102;19.958;2023-12-29T02:09:05;28.50;;;15.30;;
68509;SDS011;55512;50.102;19.958;2023-12-29T02:11:31;27.10;;;13.90;;
68509;SDS011;55512;50.102;19.958;2023-12-29T02:13:58;27.00;;;13.80;;
68509;SDS011;55512;50.102;19.958;2023-12-29T02:19:45;25.20;;;13.50;;
68509;SDS011;55512;50.102;19.958;2023-12-29T02:22:12;28.10;;;15.40;;
68509;SDS011;55512;50.102;19.958;2023-12-29T02:24:38;28.90;;;15.70;;
68509;SDS011;55512;50.102;19.958;2023-12-29T02:27:31;23.70;;;12.90;;
68509;SDS011;55512;50.102;19.958;2023-12-29T02:32:49;24.40;;;13.30;;
68509;SDS011;55512;50.102;19.958;2023-12-29T02:35:28;29.50;;;16.80;;
68509;SDS011;55512;50.102;19.958;2023-12-29T02:37:58;29.90;;;17.00;;
68509;SDS011;55512;50.102;19.958;2023-12-29T02:40:25;32.40;;;18.20;;
68509;SDS011;55512;50.102;19.958;2023-12-29T02:42:50;26.40;;;15.30;;
68509;SDS011;55512;50.102;19.958;2023-12-29T02:45:17;27.40;;;15.40;;
68509;SDS011;55512;50.102;19.958;2023-12-29T02:47:43;27.20;;;15.30;;
68509;SDS011;55512;50.102;19.958;2023-12-29T02:50:10;24.30;;;15.60;;
68509;SDS011;55512;50.102;19.958;2023-12-29T02:52:37;25.80;;;14.30;;
68509;SDS011;55512;50.102;19.958;2023-12-29T02:55:02;29.60;;;15.60;;
68509;SDS011;55512;50.102;19.958;2023-12-29T02:57:28;31.20;;;16.90;;
68509;SDS011;55512;50.102;19.958;2023-12-29T02:59:55;28.50;;;17.00;;
68509;SDS011;55512;50.102;19.958;2023-12-29T03:02:20;26.60;;;14.60;;
68509;SDS011;55512;50.102;19.958;2023-12-29T03:04:46;29.30;;;15.60;;
68509;SDS011;55512;50.102;19.958;2023-12-29T03:07:11;27.90;;;17.20;;
68509;SDS011;55512;50.102;19.958;2023-12-29T03:09:36;30.20;;;15.90;;
68509;SDS011;55512;50.102;19.958;2023-12-29T03:12:02;29.10;;;15.00;;
68509;SDS011;55512;50.102;19.958;2023-12-29T03:14:28;30.80;;;18.60;;
68509;SDS011;55512;50.102;19.958;2023-12-29T03:16:54;27.40;;;13.70;;
68509;SDS011;55512;50.102;19.958;2023-12-29T03:19:19;26.00;;;14.20;;
68509;SDS011;55512;50.102;19.958;2023-12-29T03:21:45;30.70;;;16.80;;
68509;SDS011;55512;50.102;19.958;2023-12-29T03:24:10;29.30;;;16.80;;
68509;SDS011;55512;50.102;19.958;2023-12-29T03:26:36;29.80;;;17.40;;
68509;SDS011;55512;50.102;19.958;2023-12-29T03:29:01;31.80;;;18.70;;
68509;SDS011;55512;50.102;19.958;2023-12-29T03:31:27;29.80;;;16.90;;
68509;SDS011;55512;50.102;19.958;2023-12-29T03:33:52;24.40;;;12.10;;
68509;SDS011;55512;50.102;19.958;2023-12-29T03:36:18;28.70;;;14.80;;
68509;SDS011;55512;50.102;19.958;2023-12-29T03:38:43;27.10;;;15.30;;
68509;SDS011;55512;50.102;19.958;2023-12-29T03:41:09;31.40;;;16.40;;
68509;SDS011;55512;50.102;19.958;2023-12-29T03:43:34;32.90;;;16.60;;
68509;SDS011;55512;50.102;19.958;2023-12-29T03:46:00;30.20;;;16.80;;
68509;SDS011;55512;50.102;19.958;2023-12-29T03:48:25;30.40;;;16.40;;
68509;SDS011;55512;50.102;19.958;2023-12-29T03:50:51;30.70;;;15.30;;
68509;SDS011;55512;50.102;19.958;2023-12-29T03:53:16;28.60;;;15.00;;
68509;SDS011;55512;50.102;19.958;2023-12-29T03:55:42;30.10;;;16.50;;
68509;SDS011;55512;50.102;19.958;2023-12-29T03:58:07;26.30;;;15.30;;
68509;SDS011;55512;50.102;19.958;2023-12-29T04:00:32;28.30;;;14.60;;
68509;SDS011;55512;50.102;19.958;2023-12-29T04:02:58;30.10;;;17.30;;
68509;SDS011;55512;50.102;19.958;2023-12-29T04:05:23;31.80;;;17.90;;
68509;SDS011;55512;50.102;19.958;2023-12-29T04:07:49;28.10;;;17.40;;
68509;SDS011;55512;50.102;19.958;2023-12-29T04:10:14;31.60;;;16.20;;
68509;SDS011;55512;50.102;19.958;2023-12-29T04:12:40;32.80;;;17.10;;
68509;SDS011;55512;50.102;19.958;2023-12-29T04:15:05;31.30;;;16.10;;
68509;SDS011;55512;50.102;19.958;2023-12-29T04:17:31;27.50;;;14.60;;
68509;SDS011;55512;50.102;19.958;2023-12-29T04:19:56;25.90;;;13.50;;
68509;SDS011;55512;50.102;19.958;2023-12-29T04:22:22;24.40;;;13.90;;
68509;SDS011;55512;50.102;19.958;2023-12-29T04:24:48;26.30;;;14.50;;
68509;SDS011;55512;50.102;19.958;2023-12-29T04:27:14;25.10;;;13.80;;
68509;SDS011;55512;50.102;19.958;2023-12-29T04:29:40;26.00;;;14.20;;
68509;SDS011;55512;50.102;19.958;2023-12-29T04:32:06;31.80;;;18.00;;
68509;SDS011;55512;50.102;19.958;2023-12-29T04:34:31;28.80;;;15.40;;
68509;SDS011;55512;50.102;19.958;2023-12-29T04:36:57;29.70;;;17.20;;
68509;SDS011;55512;50.102;19.958;2023-12-29T04:39:22;27.60;;;14.20;;
68509;SDS011;55512;50.102;19.958;2023-12-29T04:41:48;26.80;;;13.70;;
68509;SDS011;55512;50.102;19.958;2023-12-29T04:44:13;28.70;;;16.90;;
68509;SDS011;55512;50.102;19.958;2023-12-29T04:46:39;30.30;;;17.70;;
68509;SDS011;55512;50.102;19.958;2023-12-29T04:49:04;36.00;;;20.30;;
68509;SDS011;55512;50.102;19.958;2023-12-29T04:51:29;27.70;;;15.20;;
68509;SDS011;55512;50.102;19.958;2023-12-29T04:53:55;34.50;;;18.60;;
68509;SDS011;55512;50.102;19.958;2023-12-29T04:56:20;31.40;;;16.10;;
68509;SDS011;55512;50.102;19.958;2023-12-29T04:58:45;25.00;;;14.80;;
68509;SDS011;55512;50.102;19.958;2023-12-29T05:01:11;30.20;;;15.30;;
68509;SDS011;55512;50.102;19.958;2023-12-29T05:03:36;29.50;;;16.10;;
68509;SDS011;55512;50.102;19.958;2023-12-29T05:06:02;31.60;;;16.80;;
68509;SDS011;55512;50.102;19.958;2023-12-29T05:08:27;27.20;;;14.10;;
68509;SDS011;55512;50.102;19.958;2023-12-29T05:10:53;25.90;;;14.60;;
68509;SDS011;55512;50.102;19.958;2023-12-29T05:13:18;25.40;;;13.70;;
68509;SDS011;55512;50.102;19.958;2023-12-29T05:15:44;23.40;;;12.00;;
68509;SDS011;55512;50.102;19.958;2023-12-29T05:18:09;25.70;;;12.10;;
68509;SDS011;55512;50.102;19.958;2023-12-29T05:20:34;28.50;;;13.50;;
68509;SDS011;55512;50.102;19.958;2023-12-29T05:23:00;23.40;;;13.80;;
68509;SDS011;55512;50.102;19.958;2023-12-29T05:25:25;23.90;;;12.30;;
68509;SDS011;55512;50.102;19.958;2023-12-29T05:27:51;24.90;;;12.70;;
68509;SDS011;55512;50.102;19.958;2023-12-29T05:30:17;22.00;;;12.10;;
68509;SDS011;55512;50.102;19.958;2023-12-29T05:32:42;24.50;;;12.10;;
68509;SDS011;55512;50.102;19.958;2023-12-29T05:35:08;22.40;;;11.50;;
68509;SDS011;55512;50.102;19.958;2023-12-29T05:37:33;21.20;;;11.80;;
68509;SDS011;55512;50.102;19.958;2023-12-29T05:39:59;21.50;;;11.80;;
68509;SDS011;55512;50.102;19.958;2023-12-29T05:42:25;21.40;;;12.90;;
68509;SDS011;55512;50.102;19.958;2023-12-29T05:44:50;23.70;;;13.80;;
68509;SDS011;55512;50.102;19.958;2023-12-29T05:47:17;19.70;;;11.50;;
68509;SDS011;55512;50.102;19.958;2023-12-29T05:49:43;22.60;;;12.40;;
68509;SDS011;55512;50.102;19.958;2023-12-29T05:52:09;25.10;;;12.90;;
68509;SDS011;55512;50.102;19.958;2023-12-29T05:54:34;24.80;;;12.60;;
68509;SDS011;55512;50.102;19.958;2023-12-29T05:57:00;24.20;;;13.50;;
68509;SDS011;55512;50.102;19.958;2023-12-29T05:59:25;21.90;;;11.80;;
68509;SDS011;55512;50.102;19.958;2023-12-29T06:01:51;24.70;;;11.80;;
68509;SDS011;55512;50.102;19.958;2023-12-29T06:04:16;20.70;;;11.00;;
68509;SDS011;55512;50.102;19.958;2023-12-29T06:06:42;18.90;;;11.10;;
68509;SDS011;55512;50.102;19.958;2023-12-29T06:09:11;21.20;;;11.70;;
68509;SDS011;55512;50.102;19.958;2023-12-29T06:11:37;20.60;;;11.50;;
68509;SDS011;55512;50.102;19.958;2023-12-29T06:14:03;19.60;;;11.00;;
68509;SDS011;55512;50.102;19.958;2023-12-29T06:16:28;19.80;;;10.40;;
68509;SDS011;55512;50.102;19.958;2023-12-29T06:18:56;18.90;;;10.00;;
68509;SDS011;55512;50.102;19.958;2023-12-29T06:21:21;20.20;;;10.20;;
68509;SDS011;55512;50.102;19.958;2023-12-29T06:23:47;19.80;;;12.00;;
68509;SDS011;55512;50.102;19.958;2023-12-29T06:26:15;21.30;;;11.60;;
68509;SDS011;55512;50.102;19.958;2023-12-29T06:28:44;18.70;;;10.50;;
68509;SDS011;55512;50.102;19.958;2023-12-29T06:31:11;19.10;;;11.20;;
68509;SDS011;55512;50.102;19.958;2023-12-29T06:33:38;18.70;;;10.30;;
68509;SDS011;55512;50.102;19.958;2023-12-29T06:36:06;22.10;;;11.90;;
68509;SDS011;55512;50.102;19.958;2023-12-29T06:38:31;19.70;;;10.80;;
68509;SDS011;55512;50.102;19.958;2023-12-29T06:41:02;17.10;;;9.30;;
68509;SDS011;55512;50.102;19.958;2023-12-29T06:43:28;19.00;;;9.60;;
68509;SDS011;55512;50.102;19.958;2023-12-29T06:45:53;17.40;;;9.70;;
68509;SDS011;55512;50.102;19.958;2023-12-29T06:48:19;17.00;;;10.30;;
68509;SDS011;55512;50.102;19.958;2023-12-29T06:50:45;15.20;;;10.00;;
68509;SDS011;55512;50.102;19.958;2023-12-29T06:53:11;16.80;;;10.20;;
68509;SDS011;55512;50.102;19.958;2023-12-29T06:55:36;18.90;;;10.50;;
68509;SDS011;55512;50.102;19.958;2023-12-29T06:58:02;15.80;;;9.60;;
68509;SDS011;55512;50.102;19.958;2023-12-29T07:00:28;17.10;;;9.80;;
68509;SDS011;55512;50.102;19.958;2023-12-29T07:02:53;16.80;;;9.50;;
68509;SDS011;55512;50.102;19.958;2023-12-29T07:05:19;15.50;;;8.50;;
68509;SDS011;55512;50.102;19.958;2023-12-29T07:07:44;14.90;;;8.30;;
68509;SDS011;55512;50.102;19.958;2023-12-29T07:10:12;18.50;;;9.40;;
68509;SDS011;55512;50.102;19.958;2023-12-29T07:12:40;15.30;;;8.20;;
68509;SDS011;55512;50.102;19.958;2023-12-29T07:15:06;15.30;;;9.10;;
68509;SDS011;55512;50.102;19.958;2023-12-29T07:17:32;18.00;;;10.30;;
68509;SDS011;55512;50.102;19.958;2023-12-29T07:19:57;17.60;;;10.00;;
68509;SDS011;55512;50.102;19.958;2023-12-29T07:22:23;19.00;;;10.30;;
68509;SDS011;55512;50.102;19.958;2023-12-29T07:24:48;14.80;;;8.80;;
68509;SDS011;55512;50.102;19.958;2023-12-29T07:27:14;15.70;;;7.90;;
68509;SDS011;55512;50.102;19.958;2023-12-29T07:29:39;15.40;;;8.10;;
68509;SDS011;55512;50.102;19.958;2023-12-29T07:32:05;15.20;;;7.50;;
68509;SDS011;55512;50.102;19.958;2023-12-29T07:34:31;8.50;;;4.20;;
68509;SDS011;55512;50.102;19.958;2023-12-29T07:36:57;11.00;;;5.00;;
68509;SDS011;55512;50.102;19.958;2023-12-29T07:39:24;8.80;;;4.10;;
68509;SDS011;55512;50.102;19.958;2023-12-29T07:41:49;9.90;;;5.40;;
68509;SDS011;55512;50.102;19.958;2023-12-29T07:44:16;10.90;;;4.90;;
68509;SDS011;55512;50.102;19.958;2023-12-29T07:46:43;8.90;;;4.70;;
68509;SDS011;55512;50.102;19.958;2023-12-29T07:49:12;10.20;;;4.90;;
68509;SDS011;55512;50.102;19.958;2023-12-29T07:51:41;10.50;;;4.90;;
68509;SDS011;55512;50.102;19.958;2023-12-29T07:54:08;8.90;;;4.60;;
68509;SDS011;55512;50.102;19.958;2023-12-29T07:56:34;8.80;;;4.20;;
68509;SDS011;55512;50.102;19.958;2023-12-29T07:58:59;8.10;;;3.80;;
68509;SDS011;55512;50.102;19.958;2023-12-29T08:01:25;9.00;;;3.60;;
68509;SDS011;55512;50.102;19.958;2023-12-29T08:03:51;7.90;;;4.20;;
68509;SDS011;55512;50.102;19.958;2023-12-29T08:06:16;7.80;;;3.70;;
68509;SDS011;55512;50.102;19.958;2023-12-29T08:08:41;7.00;;;3.10;;
68509;SDS011;55512;50.102;19.958;2023-12-29T08:11:16;9.20;;;3.80;;
68509;SDS011;55512;50.102;19.958;2023-12-29T08:13:43;9.20;;;4.10;;
68509;SDS011;55512;50.102;19.958;2023-12-29T08:16:10;7.90;;;3.90;;
68509;SDS011;55512;50.102;19.958;2023-12-29T08:18:37;7.70;;;3.60;;
68509;SDS011;55512;50.102;19.958;2023-12-29T08:21:02;8.00;;;3.20;;
68509;SDS011;55512;50.102;19.958;2023-12-29T08:23:28;7.40;;;3.40;;
68509;SDS011;55512;50.102;19.958;2023-12-29T08:25:56;8.20;;;4.30;;
68509;SDS011;55512;50.102;19.958;2023-12-29T08:28:23;7.40;;;3.60;;
68509;SDS011;55512;50.102;19.958;2023-12-29T08:30:49;7.30;;;3.10;;
68509;SDS011;55512;50.102;19.958;2023-12-29T08:33:14;6.10;;;2.30;;
68509;SDS011;55512;50.102;19.958;2023-12-29T08:35:40;6.40;;;2.60;;
68509;SDS011;55512;50.102;19.958;2023-12-29T08:38:06;6.80;;;2.40;;
68509;SDS011;55512;50.102;19.958;2023-12-29T08:40:32;6.30;;;2.40;;
68509;SDS011;55512;50.102;19.958;2023-12-29T08:42:57;5.60;;;2.50;;
68509;SDS011;55512;50.102;19.958;2023-12-29T08:45:23;5.90;;;2.10;;
68509;SDS011;55512;50.102;19.958;2023-12-29T08:47:48;5.10;;;2.40;;
68509;SDS011;55512;50.102;19.958;2023-12-29T08:50:14;4.50;;;1.80;;
68509;SDS011;55512;50.102;19.958;2023-12-29T08:52:40;4.30;;;1.60;;
68509;SDS011;55512;50.102;19.958;2023-12-29T08:55:05;5.30;;;2.40;;
68509;SDS011;55512;50.102;19.958;2023-12-29T08:57:31;5.30;;;1.80;;
68509;SDS011;55512;50.102;19.958;2023-12-29T08:59:57;6.60;;;2.20;;
68509;SDS011;55512;50.102;19.958;2023-12-29T09:02:22;7.00;;;2.30;;
68509;SDS011;55512;50.102;19.958;2023-12-29T09:04:47;3.90;;;1.50;;
68509;SDS011;55512;50.102;19.958;2023-12-29T09:07:13;5.30;;;1.90;;
68509;SDS011;55512;50.102;19.958;2023-12-29T09:09:42;5.10;;;1.80;;
68509;SDS011;55512;50.102;19.958;2023-12-29T09:12:07;5.80;;;2.30;;
68509;SDS011;55512;50.102;19.958;2023-12-29T09:14:32;6.10;;;2.50;;
68509;SDS011;55512;50.102;19.958;2023-12-29T09:17:00;5.60;;;1.80;;
68509;SDS011;55512;50.102;19.958;2023-12-29T09:19:26;5.50;;;2.20;;
68509;SDS011;55512;50.102;19.958;2023-12-29T09:21:51;6.10;;;2.00;;
68509;SDS011;55512;50.102;19.958;2023-12-29T09:24:17;4.20;;;1.60;;
68509;SDS011;55512;50.102;19.958;2023-12-29T09:26:42;2.90;;;1.20;;
68509;SDS011;55512;50.102;19.958;2023-12-29T09:29:08;3.70;;;1.70;;
68509;SDS011;55512;50.102;19.958;2023-12-29T09:31:33;3.20;;;1.20;;
68509;SDS011;55512;50.102;19.958;2023-12-29T09:33:59;2.80;;;1.30;;
68509;SDS011;55512;50.102;19.958;2023-12-29T09:36:25;3.60;;;1.70;;
68509;SDS011;55512;50.102;19.958;2023-12-29T09:38:50;5.00;;;1.20;;
68509;SDS011;55512;50.102;19.958;2023-12-29T09:41:17;3.00;;;1.20;;
68509;SDS011;55512;50.102;19.958;2023-12-29T09:43:48;3.10;;;1.20;;
68509;SDS011;55512;50.102;19.958;2023-12-29T09:46:16;2.80;;;1.10;;
68509;SDS011;55512;50.102;19.958;2023-12-29T09:48:45;3.80;;;1.10;;
68509;SDS011;55512;50.102;19.958;2023-12-29T09:51:15;3.60;;;1.30;;
68509;SDS011;55512;50.102;19.958;2023-12-29T09:53:41;2.80;;;0.90;;
68509;SDS011;55512;50.102;19.958;2023-12-29T09:56:08;4.40;;;1.50;;
68509;SDS011;55512;50.102;19.958;2023-12-29T09:58:34;4.50;;;1.50;;
68509;SDS011;55512;50.102;19.958;2023-12-29T10:01:06;3.20;;;1.20;;
68509;SDS011;55512;50.102;19.958;2023-12-29T10:03:32;3.00;;;1.30;;
68509;SDS011;55512;50.102;19.958;2023-12-29T10:06:00;3.10;;;1.10;;
68509;SDS011;55512;50.102;19.958;2023-12-29T10:08:29;4.20;;;1.30;;
68509;SDS011;55512;50.102;19.958;2023-12-29T10:11:00;3.30;;;1.10;;
68509;SDS011;55512;50.102;19.958;2023-12-29T10:13:27;4.50;;;1.30;;
68509;SDS011;55512;50.102;19.958;2023-12-29T10:16:08;4.90;;;1.60;;
68509;SDS011;55512;50.102;19.958;2023-12-29T10:18:52;3.40;;;1.10;;
68509;SDS011;55512;50.102;19.958;2023-12-29T10:21:29;3.00;;;1.10;;
68509;SDS011;55512;50.102;19.958;2023-12-29T10:24:10;3.50;;;1.40;;
68509;SDS011;55512;50.102;19.958;2023-12-29T10:26:42;3.80;;;1.30;;
68509;SDS011;55512;50.102;19.958;2023-12-29T10:29:09;3.90;;;1.40;;
68509;SDS011;55512;50.102;19.958;2023-12-29T10:31:36;3.10;;;1.00;;
68509;SDS011;55512;50.102;19.958;2023-12-29T10:34:34;3.50;;;1.20;;
68509;SDS011;55512;50.102;19.958;2023-12-29T10:37:01;3.70;;;1.30;;
68509;SDS011;55512;50.102;19.958;2023-12-29T10:39:28;2.70;;;1.10;;
68509;SDS011;55512;50.102;19.958;2023-12-29T10:42:05;3.70;;;1.30;;
68509;SDS011;55512;50.102;19.958;2023-12-29T10:44:36;3.40;;;1.20;;
68509;SDS011;55512;50.102;19.958;2023-12-29T10:47:12;3.40;;;1.20;;
68509;SDS011;55512;50.102;19.958;2023-12-29T10:49:39;4.50;;;1.30;;
68509;SDS011;55512;50.102;19.958;2023-12-29T10:52:12;2.10;;;1.00;;
68509;SDS011;55512;50.102;19.958;2023-12-29T10:54:42;4.10;;;1.30;;
68509;SDS011;55512;50.102;19.958;2023-12-29T10:57:11;4.00;;;1.50;;
68509;SDS011;55512;50.102;19.958;2023-12-29T10:59:37;4.30;;;1.30;;
68509;SDS011;55512;50.102;19.958;2023-12-29T11:02:03;5.10;;;1.30;;
68509;SDS011;55512;50.102;19.958;2023-12-29T11:04:29;3.90;;;1.30;;
68509;SDS011;55512;50.102;19.958;2023-12-29T11:06:55;2.50;;;1.00;;
68509;SDS011;55512;50.102;19.958;2023-12-29T11:09:27;3.70;;;1.20;;
68509;SDS011;55512;50.102;19.958;2023-12-29T11:12:07;2.20;;;1.10;;
68509;SDS011;55512;50.102;19.958;2023-12-29T11:14:32;2.90;;;1.30;;
68509;SDS011;55512;50.102;19.958;2023-12-29T11:17:00;4.00;;;1.50;;
68509;SDS011;55512;50.102;19.958;2023-12-29T11:19:26;4.30;;;1.20;;
68509;SDS011;55512;50.102;19.958;2023-12-29T11:21:55;4.90;;;1.70;;
68509;SDS011;55512;50.102;19.958;2023-12-29T11:24:22;5.40;;;1.70;;
68509;SDS011;55512;50.102;19.958;2023-12-29T11:26:51;4.20;;;1.20;;
68509;SDS011;55512;50.102;19.958;2023-12-29T11:29:18;3.40;;;1.40;;
68509;SDS011;55512;50.102;19.958;2023-12-29T11:31:45;3.90;;;1.30;;
68509;SDS011;55512;50.102;19.958;2023-12-29T11:34:21;4.10;;;1.50;;
68509;SDS011;55512;50.102;19.958;2023-12-29T11:37:00;4.10;;;1.40;;
68509;SDS011;55512;50.102;19.958;2023-12-29T11:39:46;5.70;;;1.70;;
68509;SDS011;55512;50.102;19.958;2023-12-29T11:42:21;5.00;;;1.80;;
68509;SDS011;55512;50.102;19.958;2023-12-29T11:44:52;4.00;;;1.40;;
68509;SDS011;55512;50.102;19.958;2023-12-29T11:47:37;3.30;;;1.40;;
68509;SDS011;55512;50.102;19.958;2023-12-29T11:50:03;4.70;;;1.40;;
68509;SDS011;55512;50.102;19.958;2023-12-29T11:52:37;3.40;;;1.30;;
68509;SDS011;55512;50.102;19.958;2023-12-29T11:55:08;4.00;;;1.60;;
68509;SDS011;55512;50.102;19.958;2023-12-29T11:57:33;4.00;;;1.50;;
68509;SDS011;55512;50.102;19.958;2023-12-29T11:59:59;3.80;;;1.20;;
68509;SDS011;55512;50.102;19.958;2023-12-29T12:02:27;3.80;;;1.50;;
68509;SDS011;55512;50.102;19.958;2023-12-29T12:04:53;4.70;;;1.40;;
68509;SDS011;55512;50.102;19.958;2023-12-29T12:09:48;3.60;;;1.40;;
68509;SDS011;55512;50.102;19.958;2023-12-29T12:12:41;4.90;;;1.60;;
68509;SDS011;55512;50.102;19.958;2023-12-29T12:18:04;4.00;;;1.50;;
68509;SDS011;55512;50.102;19.958;2023-12-29T12:20:32;4.70;;;1.60;;
68509;SDS011;55512;50.102;19.958;2023-12-29T12:23:04;5.50;;;1.70;;
68509;SDS011;55512;50.102;19.958;2023-12-29T12:25:42;4.60;;;1.30;;
68509;SDS011;55512;50.102;19.958;2023-12-29T12:28:13;4.60;;;1.60;;
68509;SDS011;55512;50.102;19.958;2023-12-29T12:30:40;5.80;;;1.90;;
68509;SDS011;55512;50.102;19.958;2023-12-29T12:33:05;3.90;;;1.80;;
68509;SDS011;55512;50.102;19.958;2023-12-29T12:35:31;4.00;;;1.40;;
68509;SDS011;55512;50.102;19.958;2023-12-29T12:38:13;3.80;;;1.40;;
68509;SDS011;55512;50.102;19.958;2023-12-29T12:40:39;4.70;;;1.30;;
68509;SDS011;55512;50.102;19.958;2023-12-29T12:43:05;5.00;;;1.40;;
68509;SDS011;55512;50.102;19.958;2023-12-29T12:45:34;4.30;;;1.50;;
68509;SDS011;55512;50.102;19.958;2023-12-29T12:48:23;6.00;;;1.80;;
68509;SDS011;55512;50.102;19.958;2023-12-29T12:50:55;3.50;;;1.40;;
68509;SDS011;55512;50.102;19.958;2023-12-29T12:53:22;4.80;;;1.90;;
68509;SDS011;55512;50.102;19.958;2023-12-29T12:55:49;4.90;;;1.60;;
68509;SDS011;55512;50.102;19.958;2023-12-29T12:58:17;3.30;;;1.20;;
68509;SDS011;55512;50.102;19.958;2023-12-29T13:00:45;3.10;;;1.40;;
68509;SDS011;55512;50.102;19.958;2023-12-29T13:03:12;3.50;;;1.50;;
68509;SDS011;55512;50.102;19.958;2023-12-29T13:05:39;6.00;;;2.00;;
68509;SDS011;55512;50.102;19.958;2023-12-29T13:08:06;4.00;;;1.50;;
68509;SDS011;55512;50.102;19.958;2023-12-29T13:10:33;5.30;;;1.90;;
68509;SDS011;55512;50.102;19.958;2023-12-29T13:12:58;4.60;;;1.70;;
68509;SDS011;55512;50.102;19.958;2023-12-29T13:15:24;4.60;;;1.50;;
68509;SDS011;55512;50.102;19.958;2023-12-29T13:17:51;3.40;;;1.40;;
68509;SDS011;55512;50.102;19.958;2023-12-29T13:20:20;3.80;;;1.80;;
68509;SDS011;55512;50.102;19.958;2023-12-29T13:22:49;4.20;;;1.90;;
68509;SDS011;55512;50.102;19.958;2023-12-29T13:25:18;4.80;;;1.90;;
68509;SDS011;55512;50.102;19.958;2023-12-29T13:27:50;3.70;;;1.60;;
68509;SDS011;55512;50.102;19.958;2023-12-29T13:30:19;4.80;;;2.00;;
68509;SDS011;55512;50.102;19.958;2023-12-29T13:32:47;5.80;;;2.20;;
68509;SDS011;55512;50.102;19.958;2023-12-29T13:35:27;4.70;;;1.70;;
68509;SDS011;55512;50.102;19.958;2023-12-29T13:38:07;4.20;;;1.80;;
68509;SDS011;55512;50.102;19.958;2023-12-29T13:41:00;4.00;;;1.70;;
68509;SDS011;55512;50.102;19.958;2023-12-29T13:43:33;4.90;;;2.10;;
68509;SDS011;55512;50.102;19.958;2023-12-29T13:46:03;5.30;;;2.40;;
68509;SDS011;55512;50.102;19.958;2023-12-29T13:48:29;4.20;;;2.00;;
68509;SDS011;55512;50.102;19.958;2023-12-29T13:50:57;5.10;;;2.20;;
68509;SDS011;55512;50.102;19.958;2023-12-29T13:53:22;5.40;;;2.10;;
68509;SDS011;55512;50.102;19.958;2023-12-29T13:55:48;4.80;;;2.10;;
68509;SDS011;55512;50.102;19.958;2023-12-29T13:58:15;4.80;;;2.10;;
68509;SDS011;55512;50.102;19.958;2023-12-29T14:00:42;4.50;;;1.90;;
68509;SDS011;55512;50.102;19.958;2023-12-29T14:03:23;7.20;;;2.50;;
68509;SDS011;55512;50.102;19.958;2023-12-29T14:05:55;4.90;;;2.00;;
68509;SDS011;55512;50.102;19.958;2023-12-29T14:08:38;4.90;;;2.00;;
68509;SDS011;55512;50.102;19.958;2023-12-29T14:11:08;5.00;;;2.10;;
68509;SDS011;55512;50.102;19.958;2023-12-29T14:13:34;4.40;;;1.70;;
68509;SDS011;55512;50.102;19.958;2023-12-29T14:16:00;5.00;;;2.00;;
68509;SDS011;55512;50.102;19.958;2023-12-29T14:18:40;4.60;;;2.00;;
68509;SDS011;55512;50.102;19.958;2023-12-29T14:24:11;6.90;;;2.90;;
68509;SDS011;55512;50.102;19.958;2023-12-29T14:26:42;4.50;;;1.70;;
68509;SDS011;55512;50.102;19.958;2023-12-29T14:29:28;5.80;;;2.00;;
68509;SDS011;55512;50.102;19.958;2023-12-29T14:31:55;4.60;;;1.70;;
68509;SDS011;55512;50.102;19.958;2023-12-29T14:34:21;4.80;;;1.90;;
68509;SDS011;55512;50.102;19.958;2023-12-29T14:36:47;5.50;;;2.10;;
68509;SDS011;55512;50.102;19.958;2023-12-29T14:39:13;5.20;;;2.10;;